Time;durP1;ratioP1;P1;durP2;ratioP2;P2;SDS_P1;SDS_P2;PMS_P1;PMS_P2;Temp;Humidity;BMP_temperature;BMP_pressure;BME280_temperature;BME280_humidity;BME280_pressure;Samples;Min_cycle;Max_cycle;Signal;HPM_P1;HPM_P2
2022/05/31 00:02:05;;;;;;;3.42;1.75;;;15.90;89.60;;;;;;5013349;28;20121;-93
2022/05/31 00:04:32;;;;;;;2.42;1.23;;;15.90;89.60;;;;;;5013508;28;20396;-93
2022/05/31 00:06:58;;;;;;;1.50;1.10;;;15.90;89.60;;;;;;5013421;28;20030;-92
2022/05/31 00:09:24;;;;;;;2.65;1.27;;;15.90;89.60;;;;;;5014433;28;20022;-93
2022/05/31 00:11:50;;;;;;;2.30;1.30;;;15.90;89.60;;;;;;5013867;28;20045;-92
2022/05/31 00:14:17;;;;;;;1.65;1.20;;;15.90;89.60;;;;;;5014006;28;20073;-93
2022/05/31 00:16:45;;;;;;;2.05;1.10;;;15.80;89.60;;;;;;5014002;28;20026;-93
2022/05/31 00:19:12;;;;;;;3.47;1.30;;;15.80;89.60;;;;;;5013923;28;20541;-93
2022/05/31 00:21:46;;;;;;;1.90;1.15;;;15.90;89.70;;;;;;5013908;28;20032;-93
2022/05/31 00:24:16;;;;;;;1.67;1.27;;;15.80;89.70;;;;;;5013938;28;20116;-93
2022/05/31 00:26:42;;;;;;;2.03;1.20;;;15.80;89.70;;;;;;5013699;28;20469;-92
2022/05/31 00:29:09;;;;;;;1.98;1.40;;;15.80;89.70;;;;;;5013712;28;20511;-93
2022/05/31 00:31:37;;;;;;;2.38;1.23;;;15.80;89.70;;;;;;5013465;28;20124;-93
2022/05/31 00:34:04;;;;;;;1.50;1.00;;;15.80;89.70;;;;;;5013110;28;20025;-93
2022/05/31 00:36:30;;;;;;;1.98;1.02;;;15.80;89.70;;;;;;5013290;28;20108;-93
2022/05/31 00:38:56;;;;;;;2.45;1.20;;;15.80;89.70;;;;;;5013044;28;20100;-93
2022/05/31 00:41:25;;;;;;;2.70;1.30;;;15.80;89.70;;;;;;5013230;28;20033;-93
2022/05/31 00:43:59;;;;;;;1.70;1.10;;;15.70;89.60;;;;;;5013251;28;20030;-93
2022/05/31 00:46:28;;;;;;;2.60;1.40;;;15.80;89.70;;;;;;5013138;28;20026;-92
2022/05/31 00:48:59;;;;;;;2.05;1.20;;;15.70;89.70;;;;;;5016934;28;20030;-93
2022/05/31 00:51:36;;;;;;;2.65;1.40;;;15.70;89.70;;;;;;5017740;28;20026;-93
2022/05/31 00:54:04;;;;;;;1.80;1.00;;;15.70;89.70;;;;;;5017614;28;20061;-93
2022/05/31 00:56:31;;;;;;;2.00;1.23;;;15.70;89.80;;;;;;5017586;28;20052;-93
2022/05/31 00:59:19;;;;;;;4.22;1.40;;;15.70;89.70;;;;;;5017800;28;20536;-93
2022/05/31 01:01:51;;;;;;;2.85;1.10;;;15.70;89.80;;;;;;5017578;28;20026;-93
2022/05/31 01:04:17;;;;;;;4.20;1.30;;;15.70;89.80;;;;;;5017389;28;20435;-93
2022/05/31 01:06:43;;;;;;;4.47;1.55;;;15.70;89.80;;;;;;5017355;28;20030;-93
2022/05/31 01:09:09;;;;;;;1.42;1.13;;;15.60;89.70;;;;;;5017250;28;20026;-92
2022/05/31 01:11:39;;;;;;;1.77;1.35;;;15.60;89.70;;;;;;5017043;28;20026;-93
2022/05/31 01:14:05;;;;;;;2.67;1.25;;;15.60;89.70;;;;;;5018018;28;20114;-93
2022/05/31 01:16:32;;;;;;;2.17;1.10;;;15.60;89.70;;;;;;5017438;28;20030;-92
2022/05/31 01:18:58;;;;;;;2.67;1.30;;;15.60;89.70;;;;;;5017198;28;20473;-93
2022/05/31 01:21:24;;;;;;;4.45;1.30;;;15.60;89.70;;;;;;5017754;28;20097;-93
2022/05/31 01:24:04;;;;;;;2.30;1.00;;;15.60;89.70;;;;;;5017735;28;20026;-93
2022/05/31 01:26:45;;;;;;;4.20;1.23;;;15.60;89.80;;;;;;5017643;28;20057;-92
2022/05/31 01:29:26;;;;;;;2.17;1.10;;;15.60;89.70;;;;;;5017619;28;20025;-93
2022/05/31 01:32:00;;;;;;;5.70;1.30;;;15.60;89.70;;;;;;5017625;28;20420;-93
2022/05/31 01:34:41;;;;;;;2.05;1.20;;;15.50;89.70;;;;;;5017059;28;20029;-93
2022/05/31 01:37:08;;;;;;;2.38;1.20;;;15.50;89.70;;;;;;5016595;28;20048;-92
2022/05/31 01:39:56;;;;;;;1.67;1.08;;;15.50;89.70;;;;;;5016607;28;20014;-93
2022/05/31 01:42:44;;;;;;;2.88;1.30;;;15.50;89.70;;;;;;5016531;28;20029;-93
2022/05/31 01:45:21;;;;;;;2.17;1.30;;;15.50;89.70;;;;;;5016225;28;20034;-93
2022/05/31 01:47:48;;;;;;;4.60;1.40;;;15.50;89.70;;;;;;5016434;28;20061;-93
2022/05/31 01:50:18;;;;;;;4.20;1.23;;;15.50;90.20;;;;;;5015720;28;20129;-92
2022/05/31 01:52:47;;;;;;;1.73;1.10;;;15.50;89.80;;;;;;5016233;28;20088;-93
2022/05/31 01:55:13;;;;;;;3.95;1.50;;;15.50;89.80;;;;;;5015557;28;20029;-93
2022/05/31 01:57:42;;;;;;;1.80;1.30;;;15.50;89.80;;;;;;5015777;28;20547;-92
2022/05/31 02:00:11;;;;;;;2.03;1.20;;;15.50;89.80;;;;;;5015984;28;20104;-93
2022/05/31 02:02:37;;;;;;;7.05;1.00;;;15.40;89.80;;;;;;5015549;28;20095;-93
2022/05/31 02:05:04;;;;;;;3.17;1.20;;;15.40;89.80;;;;;;5015262;28;20028;-93
2022/05/31 02:07:30;;;;;;;2.08;1.33;;;15.40;89.80;;;;;;5015572;28;20540;-93
2022/05/31 02:09:56;;;;;;;3.22;1.35;;;15.40;89.80;;;;;;5015517;28;20040;-94
2022/05/31 02:12:25;;;;;;;1.35;1.15;;;15.40;89.80;;;;;;5015318;28;20133;-93
2022/05/31 02:14:50;;;;;;;4.05;1.27;;;15.40;89.80;;;;;;5015657;28;20055;-93
2022/05/31 02:17:16;;;;;;;2.60;1.30;;;15.40;89.80;;;;;;5015778;28;20106;-93
2022/05/31 02:19:43;;;;;;;3.33;1.33;;;15.30;89.80;;;;;;5016542;28;20029;-93
2022/05/31 02:22:14;;;;;;;1.75;1.10;;;15.40;89.90;;;;;;5015792;28;20030;-93
2022/05/31 02:24:40;;;;;;;2.53;1.10;;;15.40;89.90;;;;;;5016387;28;20458;-93
2022/05/31 02:27:07;;;;;;;2.47;1.35;;;15.40;89.90;;;;;;5015879;28;20037;-93
2022/05/31 02:29:36;;;;;;;2.72;1.30;;;15.40;90.00;;;;;;5015560;28;20018;-93
2022/05/31 02:32:04;;;;;;;3.00;1.20;;;15.30;89.90;;;;;;5015633;28;20481;-93
2022/05/31 02:34:33;;;;;;;2.38;1.00;;;15.30;89.90;;;;;;5016237;28;20049;-92
2022/05/31 02:36:59;;;;;;;2.28;1.17;;;15.30;89.90;;;;;;5012536;28;20112;-93
2022/05/31 02:39:26;;;;;;;2.92;1.23;;;15.30;90.00;;;;;;4979152;28;20030;-93
2022/05/31 02:41:51;;;;;;;1.58;1.17;;;15.30;90.00;;;;;;4978927;28;20092;-93
2022/05/31 02:44:19;;;;;;;2.47;1.35;;;15.30;90.00;;;;;;4980076;28;20462;-93
2022/05/31 02:46:45;;;;;;;2.15;1.00;;;15.30;90.00;;;;;;4980050;28;20029;-93
2022/05/31 02:49:11;;;;;;;2.28;1.45;;;15.30;90.00;;;;;;4979594;28;20034;-93
2022/05/31 02:51:42;;;;;;;1.55;1.10;;;15.30;90.00;;;;;;4980088;28;20030;-93
2022/05/31 02:54:10;;;;;;;1.85;1.02;;;15.30;90.00;;;;;;4980192;28;20484;-93
2022/05/31 02:56:36;;;;;;;3.75;1.23;;;15.30;90.00;;;;;;4979288;28;20027;-93
2022/05/31 02:59:02;;;;;;;1.90;0.98;;;15.30;90.00;;;;;;4979145;28;20026;-93
2022/05/31 03:01:31;;;;;;;1.38;1.00;;;15.20;90.00;;;;;;4980112;28;20477;-93
2022/05/31 03:03:57;;;;;;;1.30;1.08;;;15.20;90.00;;;;;;4979318;28;20037;-93
2022/05/31 03:06:24;;;;;;;2.28;1.00;;;15.20;90.10;;;;;;4962992;28;20034;-93
2022/05/31 03:08:50;;;;;;;2.08;1.23;;;15.20;90.10;;;;;;4979271;28;20022;-94
2022/05/31 03:11:27;;;;;;;1.70;0.95;;;15.20;90.10;;;;;;4979249;28;20029;-94
2022/05/31 03:13:59;;;;;;;1.85;1.00;;;15.20;90.10;;;;;;4979817;28;20023;-94
2022/05/31 03:16:26;;;;;;;2.58;1.25;;;15.20;90.10;;;;;;4980351;28;20026;-93
2022/05/31 03:19:16;;;;;;;3.15;1.10;;;15.20;90.10;;;;;;4979362;28;20035;-93
2022/05/31 03:21:52;;;;;;;1.83;1.13;;;15.20;90.10;;;;;;4979495;28;20049;-94
2022/05/31 03:24:23;;;;;;;3.03;1.10;;;15.20;90.10;;;;;;4979318;28;20023;-94
2022/05/31 03:26:52;;;;;;;2.97;1.25;;;15.20;90.10;;;;;;4980430;28;20023;-94
2022/05/31 03:29:18;;;;;;;2.00;1.20;;;15.10;90.10;;;;;;4979743;28;20026;-94
2022/05/31 03:31:44;;;;;;;6.13;1.15;;;15.10;90.10;;;;;;4978054;28;20390;-94
2022/05/31 03:34:09;;;;;;;3.33;1.13;;;15.10;90.10;;;;;;4978437;28;20081;-94
2022/05/31 03:36:35;;;;;;;2.42;1.00;;;15.10;90.10;;;;;;4979339;28;20026;-93
2022/05/31 03:39:01;;;;;;;2.15;1.20;;;15.20;90.10;;;;;;5014046;28;20401;-94
2022/05/31 03:41:27;;;;;;;3.17;1.00;;;15.10;90.10;;;;;;5014383;28;20121;-94
2022/05/31 03:43:53;;;;;;;1.77;1.15;;;15.10;90.10;;;;;;5014484;28;20159;-93
2022/05/31 03:46:18;;;;;;;2.60;1.40;;;15.10;90.10;;;;;;5014302;28;20025;-94
2022/05/31 03:48:44;;;;;;;1.58;1.08;;;15.10;90.10;;;;;;5014737;28;20022;-94
2022/05/31 03:51:11;;;;;;;4.22;1.15;;;15.10;90.20;;;;;;5014626;28;20026;-93
2022/05/31 03:53:37;;;;;;;2.35;1.20;;;15.10;90.20;;;;;;5014619;28;20088;-93
2022/05/31 03:56:09;;;;;;;2.63;1.30;;;15.10;90.20;;;;;;5014579;28;20057;-94
2022/05/31 03:58:35;;;;;;;2.22;1.10;;;15.10;90.20;;;;;;5014171;28;20116;-93
2022/05/31 04:01:01;;;;;;;3.00;1.35;;;15.00;90.10;;;;;;5014325;28;20028;-94
2022/05/31 04:03:27;;;;;;;4.50;1.20;;;15.10;90.20;;;;;;5014036;28;20025;-93
2022/05/31 04:05:54;;;;;;;1.50;1.00;;;15.00;90.20;;;;;;5013961;28;20026;-94
2022/05/31 04:08:20;;;;;;;1.88;1.15;;;15.00;90.20;;;;;;5013448;28;20029;-93
2022/05/31 04:10:47;;;;;;;3.33;1.40;;;15.00;90.20;;;;;;5013813;28;20473;-93
2022/05/31 04:13:14;;;;;;;1.88;1.15;;;15.00;90.20;;;;;;5013696;28;20029;-94
2022/05/31 04:15:40;;;;;;;4.82;1.30;;;15.00;90.20;;;;;;5013590;28;20022;-94
2022/05/31 04:18:08;;;;;;;2.28;1.40;;;15.00;90.20;;;;;;5013445;28;20038;-94
2022/05/31 04:20:34;;;;;;;2.22;1.20;;;15.00;90.20;;;;;;5014209;28;20030;-93
2022/05/31 04:25:45;;;;;;;2.15;1.10;;;15.00;90.20;;;;;;5019017;28;20033;-93
2022/05/31 04:28:11;;;;;;;3.75;1.30;;;15.00;90.20;;;;;;5018255;28;20088;-93
2022/05/31 04:30:37;;;;;;;3.92;1.30;;;15.00;90.20;;;;;;5018120;28;20109;-93
2022/05/31 04:33:04;;;;;;;2.10;1.30;;;15.00;90.20;;;;;;5017990;28;20029;-94
2022/05/31 04:35:30;;;;;;;3.25;1.10;;;15.00;90.20;;;;;;5018136;28;20022;-94
2022/05/31 04:37:55;;;;;;;2.55;1.05;;;15.00;90.20;;;;;;5017556;28;20050;-93
2022/05/31 04:40:21;;;;;;;2.10;1.30;;;15.00;90.20;;;;;;5018001;28;20030;-93
2022/05/31 04:42:47;;;;;;;3.35;1.40;;;15.00;90.30;;;;;;5017429;28;20025;-94
2022/05/31 04:45:13;;;;;;;3.20;1.50;;;15.00;90.30;;;;;;5018385;28;20032;-94
2022/05/31 04:47:38;;;;;;;2.08;1.05;;;15.00;90.30;;;;;;5017530;28;20054;-92
2022/05/31 04:50:05;;;;;;;2.45;1.23;;;15.00;90.30;;;;;;5018615;28;20448;-94
2022/05/31 04:52:31;;;;;;;2.17;0.98;;;15.00;90.30;;;;;;5018044;28;20060;-93
2022/05/31 04:54:56;;;;;;;2.55;1.30;;;15.00;90.30;;;;;;5017761;28;20335;-94
2022/05/31 04:57:22;;;;;;;2.83;1.30;;;15.00;90.30;;;;;;5017829;28;20113;-93
2022/05/31 04:59:48;;;;;;;2.05;1.17;;;15.00;90.30;;;;;;5017331;28;20393;-93
2022/05/31 05:02:13;;;;;;;2.05;1.33;;;15.00;90.30;;;;;;5016861;28;20116;-94
2022/05/31 05:04:39;;;;;;;2.33;1.40;;;15.00;90.40;;;;;;5018442;28;20029;-94
2022/05/31 05:07:05;;;;;;;1.75;1.10;;;15.00;90.40;;;;;;5017477;28;20112;-94
2022/05/31 05:09:31;;;;;;;2.28;1.48;;;15.00;90.40;;;;;;5018328;28;20358;-94
2022/05/31 05:11:56;;;;;;;1.75;1.38;;;15.00;90.40;;;;;;5018006;28;20109;-94
2022/05/31 05:14:22;;;;;;;4.20;1.50;;;15.00;90.40;;;;;;5018580;28;20094;-94
2022/05/31 05:16:48;;;;;;;2.45;1.33;;;15.00;90.40;;;;;;5017402;28;20022;-93
2022/05/31 05:19:16;;;;;;;2.72;1.30;;;15.00;90.50;;;;;;5017721;28;20121;-93
2022/05/31 05:21:42;;;;;;;5.18;1.20;;;15.00;90.50;;;;;;5017278;28;20030;-94
2022/05/31 05:24:08;;;;;;;4.30;1.23;;;15.00;90.50;;;;;;5016716;28;20026;-94
2022/05/31 05:26:35;;;;;;;2.72;1.50;;;15.00;90.50;;;;;;5017132;28;20030;-93
2022/05/31 05:31:45;;;;;;;1.88;1.17;;;15.10;90.60;;;;;;5018903;28;20071;-94
2022/05/31 05:34:11;;;;;;;3.65;1.58;;;15.10;90.60;;;;;;5016926;28;20025;-94
2022/05/31 05:36:37;;;;;;;2.70;1.20;;;15.10;90.60;;;;;;5017635;28;20426;-94
2022/05/31 05:39:02;;;;;;;2.03;1.30;;;15.10;90.60;;;;;;5016889;28;20046;-94
2022/05/31 05:41:30;;;;;;;2.95;1.52;;;15.10;90.60;;;;;;5016844;28;20029;-94
2022/05/31 05:43:56;;;;;;;2.03;1.20;;;15.10;90.70;;;;;;5017612;28;20026;-94
2022/05/31 05:46:24;;;;;;;2.05;1.30;;;15.10;90.70;;;;;;5016543;28;20481;-93
2022/05/31 05:48:51;;;;;;;2.65;1.20;;;15.10;90.70;;;;;;5015957;28;20023;-94
2022/05/31 05:51:19;;;;;;;1.70;1.15;;;15.10;90.70;;;;;;5016578;28;20118;-93
2022/05/31 05:53:45;;;;;;;2.80;1.13;;;15.10;90.80;;;;;;5017127;28;20018;-94
2022/05/31 05:56:12;;;;;;;3.13;1.23;;;15.10;90.80;;;;;;5016685;28;20489;-93
2022/05/31 05:58:38;;;;;;;1.83;1.30;;;15.10;90.80;;;;;;5017509;28;20033;-94
2022/05/31 06:01:07;;;;;;;1.90;1.23;;;15.20;90.90;;;;;;5016993;28;20449;-94
2022/05/31 06:03:50;;;;;;;1.67;1.08;;;15.20;90.90;;;;;;5017591;28;20096;-93
2022/05/31 06:06:17;;;;;;;2.42;1.20;;;15.20;90.90;;;;;;5016213;28;20029;-94
2022/05/31 06:08:56;;;;;;;1.75;1.20;;;15.20;90.90;;;;;;5016654;28;20132;-94
2022/05/31 06:11:27;;;;;;;3.30;1.20;;;15.20;90.90;;;;;;5016499;28;20070;-93
2022/05/31 06:13:59;;;;;;;2.15;1.30;;;15.20;90.90;;;;;;5017665;28;20069;-93
2022/05/31 06:16:31;;;;;;;2.13;1.13;;;15.30;91.00;;;;;;5018221;28;20473;-93
2022/05/31 06:19:06;;;;;;;1.90;1.20;;;15.30;91.00;;;;;;5018163;28;20033;-93
2022/05/31 06:21:32;;;;;;;2.80;1.30;;;15.30;91.00;;;;;;5018218;28;20021;-94
2022/05/31 06:24:00;;;;;;;4.90;1.25;;;15.30;91.00;;;;;;5019085;28;20033;-93
2022/05/31 06:26:28;;;;;;;1.58;1.20;;;15.30;91.00;;;;;;5017918;28;20026;-93
2022/05/31 06:28:53;;;;;;;3.17;1.20;;;15.30;91.10;;;;;;5018391;28;20022;-93
2022/05/31 06:31:19;;;;;;;1.90;1.20;;;15.30;91.10;;;;;;5018024;28;20018;-93
2022/05/31 06:33:45;;;;;;;1.58;1.17;;;15.40;91.10;;;;;;5018513;28;20022;-93
2022/05/31 06:36:11;;;;;;;1.70;1.17;;;15.30;91.10;;;;;;5019155;28;20159;-93
2022/05/31 06:38:36;;;;;;;2.60;1.30;;;15.40;91.20;;;;;;5018636;28;20049;-93
2022/05/31 06:41:04;;;;;;;1.85;1.20;;;15.40;91.20;;;;;;5018172;28;20029;-93
2022/05/31 06:43:30;;;;;;;2.50;1.20;;;15.40;91.20;;;;;;5018293;28;20072;-93
2022/05/31 06:45:56;;;;;;;1.80;1.00;;;15.40;91.30;;;;;;5016721;28;20025;-93
2022/05/31 06:48:22;;;;;;;2.80;1.20;;;15.40;91.30;;;;;;5017710;28;20026;-94
2022/05/31 06:50:47;;;;;;;3.00;1.25;;;15.50;91.30;;;;;;5019210;28;20049;-93
2022/05/31 06:58:43;;;;;;;2.30;1.20;;;15.50;91.40;;;;;;5017373;28;20385;-93
2022/05/31 07:01:09;;;;;;;2.78;1.30;;;15.50;91.40;;;;;;5015832;28;20029;-93
2022/05/31 07:03:34;;;;;;;2.80;1.30;;;15.50;91.50;;;;;;5016285;28;20359;-93
2022/05/31 07:06:00;;;;;;;3.85;1.27;;;15.50;91.60;;;;;;5015743;28;20022;-93
2022/05/31 07:08:26;;;;;;;2.05;0.90;;;15.50;91.60;;;;;;5015477;28;20030;-93
2022/05/31 07:10:52;;;;;;;2.92;1.27;;;15.50;91.60;;;;;;5015873;28;20482;-93
2022/05/31 07:13:18;;;;;;;2.30;1.30;;;15.50;91.60;;;;;;5015147;28;20018;-93
2022/05/31 07:15:44;;;;;;;4.50;1.10;;;15.50;91.60;;;;;;5016463;28;20125;-94
2022/05/31 07:18:10;;;;;;;2.65;1.23;;;15.50;91.70;;;;;;5017008;28;20032;-93
2022/05/31 07:20:35;;;;;;;3.95;1.50;;;15.60;91.70;;;;;;5015936;28;20078;-93
2022/05/31 07:23:01;;;;;;;2.15;1.27;;;15.60;91.50;;;;;;5017642;28;20033;-94
2022/05/31 07:25:27;;;;;;;3.97;1.40;;;15.60;91.60;;;;;;5016792;28;20136;-94
2022/05/31 07:27:53;;;;;;;2.92;1.20;;;15.70;91.70;;;;;;5017288;28;20030;-94
2022/05/31 07:30:18;;;;;;;2.70;0.98;;;15.70;91.60;;;;;;5016789;28;20022;-94
2022/05/31 07:32:44;;;;;;;1.98;1.30;;;15.70;91.80;;;;;;5015661;28;20108;-94
2022/05/31 07:35:10;;;;;;;3.25;1.27;;;15.70;91.60;;;;;;5016248;28;20024;-93
2022/05/31 07:37:36;;;;;;;4.30;1.15;;;15.80;91.60;;;;;;5014995;28;20507;-94
2022/05/31 07:40:04;;;;;;;2.95;1.30;;;15.80;91.60;;;;;;5016434;28;20030;-94
2022/05/31 07:42:29;;;;;;;3.55;1.13;;;15.80;91.70;;;;;;5016371;28;20022;-93
2022/05/31 07:44:56;;;;;;;3.15;1.55;;;15.80;91.70;;;;;;5016628;28;20036;-94
2022/05/31 07:47:23;;;;;;;2.80;1.40;;;15.90;91.80;;;;;;5014923;28;20113;-93
2022/05/31 07:49:49;;;;;;;2.03;1.33;;;15.90;91.80;;;;;;5015395;28;20053;-93
2022/05/31 07:52:14;;;;;;;2.80;1.00;;;15.90;91.90;;;;;;5016316;28;20026;-93
2022/05/31 07:54:40;;;;;;;4.45;1.30;;;15.90;91.90;;;;;;5015755;28;20033;-93
2022/05/31 07:57:06;;;;;;;3.67;1.40;;;15.90;91.70;;;;;;5016037;28;20109;-94
2022/05/31 07:59:33;;;;;;;2.25;1.27;;;15.90;91.70;;;;;;5015069;28;20473;-93
2022/05/31 08:02:00;;;;;;;2.25;1.10;;;15.90;91.80;;;;;;5015054;28;20021;-93
2022/05/31 08:04:26;;;;;;;2.15;1.30;;;15.90;91.60;;;;;;5014784;28;20393;-94
2022/05/31 08:06:52;;;;;;;2.35;1.17;;;15.90;91.60;;;;;;5014569;28;20041;-94
2022/05/31 08:09:18;;;;;;;2.95;1.05;;;15.90;91.60;;;;;;5014911;28;20441;-94
2022/05/31 08:11:44;;;;;;;2.13;1.10;;;15.90;91.70;;;;;;5014391;28;20438;-93
2022/05/31 08:14:10;;;;;;;2.42;1.20;;;15.90;91.70;;;;;;5014131;28;20041;-94
2022/05/31 08:16:35;;;;;;;1.42;0.95;;;15.90;91.70;;;;;;5015355;28;20052;-93
2022/05/31 08:19:03;;;;;;;3.63;1.20;;;16.00;91.60;;;;;;5014336;28;20026;-92
2022/05/31 08:21:30;;;;;;;3.85;1.00;;;16.00;91.60;;;;;;5014468;28;20099;-92
2022/05/31 08:24:06;;;;;;;4.57;1.45;;;16.00;91.60;;;;;;5015857;28;20025;-93
2022/05/31 08:26:31;;;;;;;1.85;1.20;;;16.00;91.50;;;;;;5015181;28;20026;-93
2022/05/31 08:28:57;;;;;;;2.85;1.15;;;16.00;91.60;;;;;;5014769;28;20033;-93
2022/05/31 08:31:31;;;;;;;1.85;1.15;;;16.10;91.50;;;;;;5014539;28;20094;-93
2022/05/31 08:33:57;;;;;;;2.00;1.13;;;16.10;91.80;;;;;;5015821;28;20086;-94
2022/05/31 08:36:23;;;;;;;2.85;1.40;;;16.10;91.70;;;;;;5014370;28;20030;-94
2022/05/31 08:38:49;;;;;;;3.85;1.17;;;16.10;91.70;;;;;;5013051;28;20057;-94
2022/05/31 08:41:18;;;;;;;4.85;1.35;;;16.10;91.60;;;;;;5013991;28;20042;-93
2022/05/31 08:43:46;;;;;;;2.92;1.10;;;16.20;91.70;;;;;;5014667;28;20030;-93
2022/05/31 08:46:42;;;;;;;5.25;1.05;;;16.10;91.60;;;;;;5015364;28;20544;-93
2022/05/31 08:49:19;;;;;;;6.72;1.10;;;16.20;91.70;;;;;;5015236;28;20117;-92
2022/05/31 08:52:13;;;;;;;5.82;1.10;;;16.20;91.70;;;;;;5016542;28;20030;-92
2022/05/31 08:57:45;;;;;;;6.05;1.10;;;16.20;91.90;;;;;;5016452;28;20448;-93
2022/05/31 09:00:18;;;;;;;4.85;1.00;;;16.20;91.90;;;;;;5015858;28;20029;-92
2022/05/31 09:02:58;;;;;;;3.30;1.30;;;16.30;92.10;;;;;;5015214;28;20030;-94
2022/05/31 09:05:35;;;;;;;3.45;1.20;;;16.20;92.20;;;;;;5016337;28;20022;-93
2022/05/31 09:08:17;;;;;;;4.55;1.20;;;16.20;92.20;;;;;;5015091;28;20022;-93
2022/05/31 09:10:52;;;;;;;1.98;1.02;;;16.20;92.10;;;;;;5018216;28;20025;-93
2022/05/31 09:13:22;;;;;;;2.53;1.15;;;16.30;92.30;;;;;;5018126;28;20033;-93
2022/05/31 09:15:57;;;;;;;2.28;1.10;;;16.30;92.20;;;;;;5018173;28;20030;-93
2022/05/31 09:18:50;;;;;;;3.22;1.17;;;16.30;92.10;;;;;;5017148;28;20030;-92
2022/05/31 09:21:20;;;;;;;2.63;1.33;;;16.40;92.20;;;;;;5017149;28;20073;-93
2022/05/31 09:23:46;;;;;;;1.58;1.08;;;16.40;92.20;;;;;;5018297;28;20076;-93
2022/05/31 09:26:31;;;;;;;2.25;1.02;;;16.40;92.10;;;;;;5019160;28;20052;-93
2022/05/31 09:29:18;;;;;;;2.63;1.13;;;16.50;92.10;;;;;;5018777;28;20089;-93
2022/05/31 09:32:17;;;;;;;3.42;1.20;;;16.60;92.00;;;;;;5018544;28;20089;-94
2022/05/31 09:34:52;;;;;;;4.43;1.27;;;16.60;91.80;;;;;;5012680;28;20026;-93
2022/05/31 09:37:54;;;;;;;5.03;1.35;;;16.60;91.80;;;;;;5017759;28;20073;-93
2022/05/31 09:40:31;;;;;;;2.25;1.17;;;16.60;91.70;;;;;;5016485;28;20045;-92
2022/05/31 09:43:19;;;;;;;2.35;1.00;;;16.70;91.60;;;;;;5018017;28;20034;-93
2022/05/31 09:45:59;;;;;;;3.80;1.05;;;16.80;91.50;;;;;;5016631;28;20026;-94
2022/05/31 09:48:25;;;;;;;4.32;1.00;;;16.70;91.30;;;;;;5017007;28;20022;-92
2022/05/31 09:50:58;;;;;;;3.97;1.10;;;16.80;91.20;;;;;;5016822;28;20026;-92
2022/05/31 09:59:12;;;;;;;2.22;1.10;;;16.90;91.20;;;;;;5017966;28;20556;-94
2022/05/31 10:01:44;;;;;;;3.50;1.00;;;16.90;91.20;;;;;;5018114;28;20405;-94
2022/05/31 10:04:13;;;;;;;2.85;1.30;;;16.90;91.40;;;;;;5017304;28;20080;-93
2022/05/31 10:07:05;;;;;;;3.70;1.30;;;16.90;91.50;;;;;;5016587;28;20548;-93
2022/05/31 10:09:35;;;;;;;1.88;1.17;;;16.90;91.60;;;;;;5018363;28;20022;-94
2022/05/31 10:12:41;;;;;;;6.10;1.13;;;16.90;91.60;;;;;;5018220;28;20018;-93
2022/05/31 10:15:10;;;;;;;2.42;1.08;;;16.90;91.70;;;;;;5011935;28;20056;-93
2022/05/31 10:17:43;;;;;;;2.10;1.10;;;16.90;91.70;;;;;;5016873;28;20025;-94
2022/05/31 10:20:25;;;;;;;2.93;0.80;;;16.90;91.80;;;;;;5016760;28;20030;-93
2022/05/31 10:22:56;;;;;;;2.92;1.20;;;16.90;91.90;;;;;;5016419;28;20492;-93
2022/05/31 10:25:27;;;;;;;3.17;1.00;;;16.90;91.70;;;;;;5016436;28;20022;-94
2022/05/31 10:27:58;;;;;;;2.67;1.10;;;17.00;91.80;;;;;;5016260;28;20093;-93
2022/05/31 10:30:25;;;;;;;2.45;1.00;;;17.00;91.80;;;;;;5016004;28;20061;-93
2022/05/31 10:32:57;;;;;;;1.67;0.93;;;17.00;91.70;;;;;;5016364;28;20169;-95
2022/05/31 10:35:29;;;;;;;4.50;1.30;;;17.00;91.70;;;;;;5016450;28;20022;-94
2022/05/31 10:38:04;;;;;;;1.90;0.93;;;17.00;91.60;;;;;;5019992;28;20084;-93
2022/05/31 10:40:48;;;;;;;2.15;1.10;;;17.10;91.70;;;;;;5017257;28;20025;-94
2022/05/31 10:43:35;;;;;;;2.42;0.90;;;17.10;91.70;;;;;;5016805;28;20473;-93
2022/05/31 10:46:13;;;;;;;2.17;1.15;;;17.20;91.70;;;;;;5016083;28;20077;-90
2022/05/31 10:48:47;;;;;;;1.95;1.10;;;17.20;91.60;;;;;;5016081;28;20026;-92
2022/05/31 10:51:34;;;;;;;3.35;0.93;;;17.20;91.60;;;;;;5015680;28;20083;-91
2022/05/31 10:54:12;;;;;;;3.28;1.08;;;17.30;91.60;;;;;;5015696;28;20036;-91
2022/05/31 10:56:50;;;;;;;2.03;1.00;;;17.30;91.50;;;;;;5015733;28;20030;-93
2022/05/31 10:59:20;;;;;;;4.10;1.27;;;17.30;91.50;;;;;;5016149;28;20495;-94
2022/05/31 11:01:50;;;;;;;1.67;1.13;;;17.40;91.50;;;;;;5015899;28;20030;-94
2022/05/31 11:04:35;;;;;;;2.05;0.90;;;17.40;91.50;;;;;;5016133;28;20026;-92
2022/05/31 11:07:27;;;;;;;2.97;1.13;;;17.50;91.50;;;;;;5017032;28;20022;-94
2022/05/31 11:13:26;;;;;;;2.47;1.20;;;17.50;91.40;;;;;;5017653;28;20088;-93
2022/05/31 11:16:01;;;;;;;2.60;0.95;;;17.50;91.40;;;;;;5015995;28;20517;-94
2022/05/31 11:19:01;;;;;;;2.33;1.00;;;17.50;91.50;;;;;;5016111;28;20054;-94
2022/05/31 11:22:02;;;;;;;3.55;0.90;;;17.60;91.60;;;;;;4963218;28;20413;-93
2022/05/31 11:24:57;;;;;;;2.28;1.08;;;17.60;91.50;;;;;;5015792;28;20121;-93
2022/05/31 11:27:44;;;;;;;;;;;17.60;91.50;;;;;;5017679;28;20037;-94
2022/05/31 11:30:21;;;;;;;3.50;0.90;;;17.60;91.40;;;;;;5016481;28;19952;-93
2022/05/31 11:32:59;;;;;;;2.35;1.10;;;17.70;91.50;;;;;;5015483;28;20129;-93
2022/05/31 11:35:39;;;;;;;2.53;0.95;;;17.60;91.50;;;;;;5016530;28;20029;-92
2022/05/31 11:38:22;;;;;;;3.90;1.15;;;17.70;91.40;;;;;;5015133;28;20520;-93
2022/05/31 11:41:02;;;;;;;2.30;1.38;;;17.70;91.40;;;;;;5017092;28;20067;-93
2022/05/31 11:43:52;;;;;;;3.47;1.00;;;17.70;91.40;;;;;;5014543;28;20022;-91
2022/05/31 11:46:47;;;;;;;2.22;1.00;;;17.60;91.40;;;;;;5015924;28;20034;-93
2022/05/31 11:49:43;;;;;;;1.52;0.90;;;17.60;91.30;;;;;;5016142;28;20032;-93
2022/05/31 11:52:28;;;;;;;4.07;1.00;;;17.60;91.30;;;;;;5015552;28;20128;-93
2022/05/31 11:55:26;;;;;;;2.28;0.93;;;17.60;91.40;;;;;;5017377;28;20022;-91
2022/05/31 11:57:59;;;;;;;3.80;0.90;;;17.70;91.40;;;;;;5021578;28;20033;-92
2022/05/31 12:00:36;;;;;;;2.92;1.20;;;17.70;91.30;;;;;;5018998;28;20049;-94
2022/05/31 12:03:21;;;;;;;3.45;0.85;;;17.70;91.40;;;;;;5018473;28;20022;-94
2022/05/31 12:05:56;;;;;;;;;;;17.70;91.40;;;;;;5018371;28;20026;-94
2022/05/31 12:08:45;;;;;;;;;;;17.70;91.40;;;;;;5019378;28;19913;-91
2022/05/31 12:11:26;;;;;;;2.50;1.00;;;17.70;91.40;;;;;;5006742;28;19977;-90
2022/05/31 12:13:54;;;;;;;3.25;1.23;;;17.60;91.30;;;;;;5015367;28;20029;-90
2022/05/31 12:16:21;;;;;;;6.38;1.00;;;17.60;91.40;;;;;;5016285;28;20030;-91
2022/05/31 12:18:58;;;;;;;2.20;1.30;;;17.60;91.40;;;;;;5016327;28;20025;-92
2022/05/31 12:21:35;;;;;;;1.55;0.88;;;17.50;91.20;;;;;;5015436;28;20037;-91
2022/05/31 12:24:23;;;;;;;4.85;0.82;;;17.50;91.20;;;;;;5018533;28;20028;-93
2022/05/31 12:27:04;;;;;;;3.20;1.10;;;17.50;91.20;;;;;;5015911;28;20034;-90
2022/05/31 12:30:00;;;;;;;1.30;0.90;;;17.50;91.20;;;;;;5017724;28;20500;-92
2022/05/31 12:32:27;;;;;;;2.70;1.00;;;17.50;91.10;;;;;;5017103;28;20030;-93
2022/05/31 12:34:53;;;;;;;2.38;1.10;;;17.50;91.00;;;;;;5020920;28;20033;-92
2022/05/31 12:37:19;;;;;;;2.17;0.90;;;17.50;91.20;;;;;;5014913;28;20065;-93
2022/05/31 12:39:47;;;;;;;2.08;0.90;;;17.60;91.40;;;;;;5016540;28;20037;-90
2022/05/31 12:42:13;;;;;;;1.77;0.90;;;17.60;91.00;;;;;;5017075;28;20441;-92
2022/05/31 12:44:40;;;;;;;2.25;1.05;;;17.60;90.90;;;;;;5017333;28;20026;-91
2022/05/31 12:47:16;;;;;;;1.90;1.00;;;17.70;90.90;;;;;;5020444;28;20029;-92
2022/05/31 12:50:06;;;;;;;1.52;0.82;;;17.70;90.80;;;;;;5022070;28;20014;-93
2022/05/31 12:52:48;;;;;;;3.45;1.00;;;17.70;90.80;;;;;;5021392;28;20057;-91
2022/05/31 12:55:26;;;;;;;3.60;0.90;;;17.80;90.60;;;;;;5022634;28;20040;-95
2022/05/31 12:58:26;;;;;;;2.38;1.00;;;17.80;90.50;;;;;;5022797;28;20022;-92
2022/05/31 13:00:56;;;;;;;3.92;1.17;;;17.90;90.40;;;;;;5021093;28;20041;-93
2022/05/31 13:03:36;;;;;;;5.15;0.90;;;18.00;90.20;;;;;;5024803;28;20393;-94
2022/05/31 13:06:09;;;;;;;3.35;0.85;;;18.20;90.00;;;;;;5020689;28;20026;-94
2022/05/31 13:08:56;;;;;;;2.13;0.90;;;18.30;89.60;;;;;;5021108;28;20022;-95
2022/05/31 13:20:28;;;;;;;2.33;0.82;;;18.50;88.70;;;;;;5020445;28;20092;-95
2022/05/31 13:23:17;;;;;;;2.70;1.00;;;18.60;88.40;;;;;;5017785;28;20060;-92
2022/05/31 13:25:49;;;;;;;2.03;1.00;;;18.70;88.40;;;;;;5018511;28;20041;-94
2022/05/31 13:28:50;;;;;;;2.17;1.05;;;18.60;88.40;;;;;;5018578;28;20022;-93
2022/05/31 13:31:21;;;;;;;1.98;0.90;;;18.50;88.90;;;;;;4987641;28;20030;-95
2022/05/31 13:33:57;;;;;;;1.80;0.73;;;18.50;88.90;;;;;;5019325;28;20018;-94
2022/05/31 13:36:27;;;;;;;1.17;0.80;;;18.50;88.90;;;;;;5020370;28;20466;-95
2022/05/31 13:39:08;;;;;;;2.35;0.80;;;18.40;89.00;;;;;;5018494;28;20046;-94
2022/05/31 13:41:47;;;;;;;2.22;0.77;;;18.40;89.20;;;;;;5019044;28;20447;-95
2022/05/31 13:44:14;;;;;;;2.05;0.80;;;18.40;89.20;;;;;;5018506;28;20021;-94